Список аэропортов
Фактическая погода:

23 апреля, 12:30
Температура: +5°C (-0.1*)
Ветер: западный 9 м/с
Давление: *750 мм
неб. облачность
кучево-дождевые 990 м
Время (МСК)Темп. СВетерВлажностьДавлениеОблачностьОсадки
09:00+3ЮЗ, 9 м/с62%999 гПаоблачно
10:00+4ЮЗ, 9 м/с58%1000 гПамалооблачно
11:00+5ЮЗ, 9 м/с55%1000 гПаоблачно
12:00+6З, 9 м/с53%1000 гПаоблачносл. дождь
13:00+7ЮЗ, 8 м/с49%1001 гПас прояснениями
14:00+7ЮЗ, 9 м/с46%1001 гПамалооблачно
15:00+8ЮЗ, 9 м/с45%1002 гПас прояснениями
16:00+8З, 8 м/с44%1002 гПас прояснениями
17:00+7ЮЗ, 7 м/с44%1003 гПамалооблачно
18:00+7З, 7 м/с44%1003 гПаясно
19:00+6З, 6 м/с45%1004 гПаясно
20:00+5ЮЗ, 4 м/с51%1005 гПаясно
21:00+3ЮЗ, 3 м/с60%1005 гПаясно
22:00+2ЮЗ, 3 м/с67%1006 гПаясно
23:00+1ЮЗ, 3 м/с72%1006 гПамалооблачно
24 апреля
00:00+1ЮЗ, 2 м/с74%1006 гПас прояснениями
01:000ЮЗ, 2 м/с78%1007 гПаоблачно
02:00-0З, 2 м/с81%1007 гПаоблачно
03:00-1З, 2 м/с83%1006 гПас прояснениями
04:00-1ЮЗ, 1 м/с86%1006 гПаоблачно
05:00-2ЮЗ, 1 м/с87%1006 гПамалооблачно
06:00-2З, 1 м/с88%1006 гПамалооблачно
07:00-1СЗ, 2 м/с84%1006 гПас прояснениями
08:00+2СЗ, 1 м/с74%1006 гПаоблачно
09:00+5СЗ, 1 м/с67%1006 гПаоблачно
10:00+7С, 2 м/с63%1006 гПаоблачносл. дождь
11:00+7С, 2 м/с67%1006 гПаоблачнодождь
12:00+8СЗ, 2 м/с63%1005 гПаоблачнодождь
13:00+8СЗ, 3 м/с63%1005 гПаоблачнодождь
14:00+9СЗ, 3 м/с60%1005 гПаоблачнодождь
15:00+9СЗ, 4 м/с53%1005 гПаоблачносл. дождь
16:00+8СЗ, 4 м/с60%1005 гПаоблачнодождь
17:00+8СЗ, 5 м/с67%1006 гПаоблачнодождь
18:00+7СЗ, 6 м/с64%1006 гПаоблачносл. дождь
19:00+7СЗ, 6 м/с61%1007 гПаоблачно
20:00+6СЗ, 4 м/с60%1007 гПаоблачно
21:00+6СЗ, 3 м/с61%1008 гПаоблачно
22:00+5З, 2 м/с64%1009 гПаоблачно
23:00+4З, 3 м/с62%1009 гПаоблачно
25 апреля
00:00+4СЗ, 5 м/с56%1009 гПаоблачно
01:00+3СЗ, 4 м/с65%1010 гПаясно
02:00+2СЗ, 3 м/с73%1011 гПаясно
03:00+1З, 3 м/с78%1011 гПаясно
04:000З, 3 м/с81%1012 гПаясно
05:00-0З, 3 м/с84%1012 гПаясно
06:00-0З, 3 м/с86%1013 гПаясно
07:000З, 3 м/с80%1014 гПаясно
08:00+3З, 3 м/с64%1014 гПаясно
09:00+6З, 4 м/с54%1014 гПаясно